createdAt,value
2019-02-27T00:01:20.082Z,1.90
2019-02-27T00:03:49.594Z,1.81
2019-02-27T00:06:19.176Z,1.89
2019-02-27T00:08:48.699Z,1.92
2019-02-27T00:11:18.189Z,1.85
2019-02-27T00:13:47.721Z,1.75
2019-02-27T00:16:17.140Z,1.72
2019-02-27T00:18:46.715Z,1.66
2019-02-27T00:21:16.247Z,1.55
2019-02-27T00:23:45.688Z,1.60
2019-02-27T00:26:15.130Z,1.60
2019-02-27T00:28:44.631Z,1.56
2019-02-27T00:31:14.156Z,1.60
2019-02-27T00:33:43.667Z,1.63
2019-02-27T00:36:13.150Z,1.64
2019-02-27T00:38:42.750Z,1.61
2019-02-27T00:41:13.002Z,1.62
2019-02-27T00:43:42.559Z,1.62
2019-02-27T00:46:13.346Z,1.60
2019-02-27T00:48:43.112Z,1.43
2019-02-27T00:51:12.885Z,1.36
2019-02-27T00:53:42.490Z,1.32
2019-02-27T00:56:12.797Z,1.27
2019-02-27T00:58:42.464Z,1.23
2019-02-27T01:01:14.717Z,1.14
2019-02-27T01:03:44.225Z,1.06
2019-02-27T01:06:14.801Z,1.06
2019-02-27T01:08:44.852Z,1.08
2019-02-27T01:11:18.159Z,1.10
2019-02-27T01:13:45.413Z,1.09
2019-02-27T01:16:16.948Z,1.13
2019-02-27T01:18:46.077Z,1.09
2019-02-27T01:21:19.236Z,1.05
2019-02-27T01:23:46.640Z,1.00
2019-02-27T01:26:16.085Z,0.93
2019-02-27T01:28:45.634Z,0.92
2019-02-27T01:31:15.121Z,0.93
2019-02-27T01:33:44.564Z,1.00
2019-02-27T01:36:15.701Z,0.97
2019-02-27T01:38:45.187Z,0.93
2019-02-27T01:41:14.631Z,0.86
2019-02-27T01:43:44.056Z,0.83
2019-02-27T01:46:13.498Z,0.80
2019-02-27T01:48:43.827Z,0.71
2019-02-27T01:51:13.348Z,0.63
2019-02-27T01:53:42.768Z,0.55
2019-02-27T01:56:12.226Z,0.54
2019-02-27T01:58:44.224Z,0.56
2019-02-27T02:01:12.838Z,0.56
2019-02-27T02:03:42.274Z,0.54
2019-02-27T02:06:11.692Z,0.59
2019-02-27T02:08:41.208Z,0.66
2019-02-27T02:11:10.770Z,0.67
2019-02-27T02:13:59.895Z,0.69
2019-02-27T02:16:34.982Z,0.75
2019-02-27T02:19:28.323Z,0.79
2019-02-27T02:22:27.856Z,0.78
2019-02-27T02:25:09.032Z,0.74
2019-02-27T02:27:50.458Z,0.63
2019-02-27T02:30:29.991Z,0.51
2019-02-27T02:33:30.250Z,0.47
2019-02-27T02:36:13.098Z,0.44
2019-02-27T02:39:19.381Z,0.40
2019-02-27T02:41:51.979Z,0.39
2019-02-27T02:44:39.548Z,0.33
2019-02-27T02:47:21.094Z,0.25
2019-02-27T02:49:57.671Z,0.22
2019-02-27T02:52:48.041Z,0.23
2019-02-27T02:55:38.790Z,0.28
2019-02-27T02:58:27.610Z,0.28
2019-02-27T03:01:15.217Z,0.25
2019-02-27T03:04:12.554Z,0.21
2019-02-27T03:06:55.097Z,0.24
2019-02-27T03:09:39.388Z,0.25
2019-02-27T03:12:31.177Z,0.25
2019-02-27T03:15:03.904Z,0.29
2019-02-27T03:17:54.793Z,0.24
2019-02-27T03:20:44.021Z,0.24
2019-02-27T03:23:25.294Z,0.18
2019-02-27T03:26:03.329Z,0.12
2019-02-27T03:28:52.286Z,0.10
2019-02-27T03:31:33.954Z,0.09
2019-02-27T03:34:29.380Z,0.09
2019-02-27T03:37:14.340Z,0.03
2019-02-27T03:40:20.896Z,-0.03
2019-02-27T03:42:53.356Z,-0.06
2019-02-27T03:45:42.642Z,-0.08
2019-02-27T03:48:27.758Z,-0.09
2019-02-27T03:51:24.698Z,-0.07
2019-02-27T03:53:56.105Z,-0.10
2019-02-27T03:56:46.202Z,-0.10
2019-02-27T03:59:18.680Z,-0.10
2019-02-27T04:02:10.762Z,-0.12
2019-02-27T04:05:07.100Z,-0.12
2019-02-27T04:07:59.756Z,-0.15
2019-02-27T04:10:31.253Z,-0.23
2019-02-27T04:13:00.340Z,-0.23
2019-02-27T04:15:29.825Z,-0.21
2019-02-27T04:17:58.104Z,-0.20
2019-02-27T04:20:27.575Z,-0.20
2019-02-27T04:22:56.997Z,-0.16
2019-02-27T04:25:31.058Z,-0.14
2019-02-27T04:27:57.674Z,-0.18
2019-02-27T04:30:27.104Z,-0.22
2019-02-27T04:32:56.551Z,-0.23
2019-02-27T04:35:25.988Z,-0.21
2019-02-27T04:37:55.453Z,-0.20
2019-02-27T04:40:24.890Z,-0.21
2019-02-27T04:42:56.969Z,-0.25
2019-02-27T04:45:25.502Z,-0.29
2019-02-27T04:47:54.957Z,-0.34
2019-02-27T04:50:25.445Z,-0.34
2019-02-27T04:52:57.882Z,-0.36
2019-02-27T04:55:26.018Z,-0.41
2019-02-27T04:57:55.552Z,-0.43
2019-02-27T05:00:26.261Z,-0.44
2019-02-27T05:02:56.457Z,-0.46
2019-02-27T05:05:25.958Z,-0.47
2019-02-27T05:07:55.394Z,-0.52
2019-02-27T05:10:24.844Z,-0.55
2019-02-27T05:12:54.302Z,-0.57
2019-02-27T05:15:23.760Z,-0.61
2019-02-27T05:17:55.651Z,-0.59
2019-02-27T05:20:24.316Z,-0.58
2019-02-27T05:22:53.738Z,-0.62
2019-02-27T05:25:23.186Z,-0.64
2019-02-27T05:27:52.622Z,-0.70
2019-02-27T05:30:22.051Z,-0.74
2019-02-27T05:32:51.495Z,-0.77
2019-02-27T05:35:24.193Z,-0.78
2019-02-27T05:37:52.548Z,-0.80
2019-02-27T05:40:23.134Z,-0.83
2019-02-27T05:42:53.116Z,-0.83
2019-02-27T05:45:22.559Z,-0.78
2019-02-27T05:47:52.009Z,-0.75
2019-02-27T05:50:21.437Z,-0.76
2019-02-27T05:52:50.963Z,-0.79
2019-02-27T05:55:20.457Z,-0.79
2019-02-27T05:57:50.043Z,-0.82
2019-02-27T06:00:20.971Z,-0.83
2019-02-27T06:02:50.426Z,-0.82
2019-02-27T06:05:19.922Z,-0.85
2019-02-27T06:07:49.449Z,-0.82
2019-02-27T06:10:20.198Z,-0.83
2019-02-27T06:12:50.356Z,-0.87
2019-02-27T06:15:19.885Z,-0.91
2019-02-27T06:17:49.891Z,-0.94
2019-02-27T06:20:19.407Z,-0.91
2019-02-27T06:22:48.826Z,-0.88
2019-02-27T06:25:23.365Z,-0.88
2019-02-27T06:27:49.933Z,-0.93
2019-02-27T06:30:20.930Z,-0.94
2019-02-27T06:32:50.385Z,-0.95
2019-02-27T06:35:21.859Z,-0.95
2019-02-27T06:37:51.462Z,-0.93
2019-02-27T06:40:20.969Z,-0.92
2019-02-27T06:42:53.353Z,-0.86
2019-02-27T06:45:24.553Z,-0.79
2019-02-27T06:47:54.003Z,-0.78
2019-02-27T06:50:25.536Z,-0.76
2019-02-27T06:52:54.663Z,-0.74
2019-02-27T06:55:25.532Z,-0.70
2019-02-27T06:57:55.403Z,-0.64
2019-02-27T07:00:26.228Z,-0.60
2019-02-27T07:02:56.234Z,-0.60
2019-02-27T07:05:25.794Z,-0.57
2019-02-27T07:07:55.264Z,-0.50
2019-02-27T07:10:24.683Z,-0.46
2019-02-27T07:12:55.300Z,-0.39
2019-02-27T07:15:24.918Z,-0.28
2019-02-27T07:17:54.372Z,-0.19
2019-02-27T07:20:25.140Z,-0.12
2019-02-27T07:22:54.714Z,-0.04
2019-02-27T07:25:24.228Z,0.04
2019-02-27T07:27:53.640Z,0.12
2019-02-27T07:30:23.921Z,0.16
2019-02-27T07:32:55.186Z,0.24
2019-02-27T07:35:26.348Z,0.30
2019-02-27T07:37:55.820Z,0.39
2019-02-27T07:40:25.257Z,0.44
2019-02-27T07:42:54.752Z,0.54
2019-02-27T07:45:24.529Z,0.69
2019-02-27T07:47:53.941Z,0.87
2019-02-27T07:50:23.409Z,1.07
2019-02-27T07:52:52.822Z,1.25
2019-02-27T07:55:23.621Z,1.40
2019-02-27T07:57:58.416Z,1.55
2019-02-27T08:00:26.385Z,1.65
2019-02-27T08:02:56.046Z,1.76
2019-02-27T08:05:27.937Z,1.90
2019-02-27T08:07:56.708Z,2.04
2019-02-27T08:10:26.632Z,2.15
2019-02-27T08:12:56.743Z,2.34
2019-02-27T08:15:26.294Z,2.51
2019-02-27T08:17:57.939Z,2.67
2019-02-27T08:20:27.992Z,2.83
2019-02-27T08:22:57.971Z,3.02
2019-02-27T08:25:27.509Z,3.18
2019-02-27T08:27:56.968Z,3.35
2019-02-27T08:30:28.019Z,3.59
2019-02-27T08:32:57.539Z,3.80
2019-02-27T08:35:26.962Z,4.01
2019-02-27T08:38:02.493Z,4.19
2019-02-27T08:40:27.670Z,4.39
2019-02-27T08:42:57.171Z,4.56
2019-02-27T08:45:27.734Z,4.78
2019-02-27T08:47:57.222Z,4.96
2019-02-27T08:50:29.241Z,5.13
2019-02-27T08:52:58.039Z,5.39
2019-02-27T08:55:27.537Z,5.50
2019-02-27T08:57:57.235Z,5.62
2019-02-27T09:00:29.749Z,5.73
2019-02-27T09:05:31.031Z,6.17
2019-02-27T09:08:00.446Z,6.43
2019-02-27T09:10:30.806Z,6.60
2019-02-27T09:13:05.242Z,6.93
2019-02-27T09:15:31.693Z,7.07
2019-02-27T09:18:02.933Z,7.16
2019-02-27T09:20:32.420Z,7.34
2019-02-27T09:23:01.877Z,7.50
2019-02-27T09:25:31.353Z,7.60
2019-02-27T09:28:00.890Z,7.77
2019-02-27T09:30:31.393Z,7.96
2019-02-27T09:33:00.833Z,8.07
2019-02-27T09:35:34.600Z,8.13
2019-02-27T09:38:01.624Z,8.24
2019-02-27T09:40:31.064Z,8.33
2019-02-27T09:43:00.492Z,8.52
2019-02-27T09:45:35.521Z,8.65
2019-02-27T09:48:05.374Z,8.77
2019-02-27T09:50:47.787Z,8.84
2019-02-27T09:53:14.607Z,8.96
2019-02-27T09:55:44.122Z,9.13
2019-02-27T09:58:13.613Z,9.19
2019-02-27T10:01:07.280Z,9.25
2019-02-27T10:03:36.698Z,9.36
2019-02-27T10:06:08.775Z,9.57
2019-02-27T10:08:37.370Z,9.71
2019-02-27T10:11:06.855Z,9.83
2019-02-27T10:13:37.942Z,9.95
2019-02-27T10:16:07.633Z,10.08
2019-02-27T10:18:37.151Z,10.16
2019-02-27T10:21:06.588Z,10.40
2019-02-27T10:23:36.124Z,10.52
2019-02-27T10:26:05.622Z,10.65
2019-02-27T10:28:38.788Z,10.72
2019-02-27T10:31:06.288Z,10.75
2019-02-27T10:33:35.728Z,10.77
2019-02-27T10:36:05.271Z,10.89
2019-02-27T10:38:40.108Z,10.95
2019-02-27T10:41:05.919Z,11.06
2019-02-27T10:43:35.365Z,11.17
2019-02-27T10:46:04.817Z,11.27
2019-02-27T10:48:34.345Z,11.41
2019-02-27T10:51:03.804Z,11.60
2019-02-27T10:53:33.230Z,11.72
2019-02-27T10:56:02.760Z,11.82
2019-02-27T10:58:33.278Z,11.92
2019-02-27T11:01:02.825Z,12.04
2019-02-27T11:03:33.515Z,12.08
2019-02-27T11:06:03.043Z,12.20
2019-02-27T11:08:32.601Z,12.34
2019-02-27T11:11:02.069Z,12.47
2019-02-27T11:13:31.556Z,12.58
2019-02-27T11:16:01.173Z,12.69
2019-02-27T11:18:30.693Z,12.80
2019-02-27T11:21:00.365Z,12.94
2019-02-27T11:23:29.959Z,12.97
2019-02-27T11:25:59.553Z,13.11
2019-02-27T11:28:28.983Z,13.23
2019-02-27T11:30:58.428Z,13.42
2019-02-27T11:33:32.718Z,13.42
2019-02-27T11:36:00.234Z,13.54
2019-02-27T11:38:29.663Z,13.63
2019-02-27T11:40:59.105Z,13.78
2019-02-27T11:43:28.552Z,13.91
2019-02-27T11:45:58.669Z,13.91
2019-02-27T11:48:28.227Z,13.95
2019-02-27T11:50:57.666Z,13.91
2019-02-27T11:53:27.167Z,14.00
2019-02-27T11:55:56.697Z,14.08
2019-02-27T11:58:26.149Z,14.07
2019-02-27T12:00:55.651Z,14.27
2019-02-27T12:03:25.100Z,14.37
2019-02-27T12:05:54.660Z,14.47
2019-02-27T12:08:25.786Z,14.57
2019-02-27T12:10:55.414Z,14.76
2019-02-27T12:13:24.943Z,14.85
2019-02-27T12:15:54.358Z,14.89
2019-02-27T12:18:24.878Z,14.99
2019-02-27T12:20:55.704Z,15.01
2019-02-27T12:23:26.088Z,15.15
2019-02-27T12:25:55.614Z,15.22
2019-02-27T12:28:25.224Z,15.36
2019-02-27T12:30:54.728Z,15.53
2019-02-27T12:33:24.177Z,15.64
2019-02-27T12:35:53.670Z,15.73
2019-02-27T12:38:23.122Z,15.73
2019-02-27T12:40:52.619Z,15.90
2019-02-27T12:43:22.208Z,15.93
2019-02-27T12:45:51.624Z,15.98
2019-02-27T12:48:21.138Z,16.03
2019-02-27T12:50:50.548Z,16.02
2019-02-27T12:53:21.557Z,16.02
2019-02-27T12:55:51.167Z,15.96
2019-02-27T12:58:20.691Z,16.17
2019-02-27T13:00:50.181Z,16.20
2019-02-27T13:03:19.686Z,16.30
2019-02-27T13:05:49.272Z,16.30
2019-02-27T13:08:19.462Z,16.48
2019-02-27T13:10:49.006Z,16.50
2019-02-27T13:13:19.618Z,16.57
2019-02-27T13:15:50.107Z,16.58
2019-02-27T13:18:19.623Z,16.60
2019-02-27T13:20:49.071Z,16.66
2019-02-27T13:23:18.488Z,16.74
2019-02-27T13:25:47.943Z,16.72
2019-02-27T13:28:17.358Z,16.83
2019-02-27T13:30:46.797Z,16.81
2019-02-27T13:33:16.281Z,16.96
2019-02-27T13:35:45.781Z,16.91
2019-02-27T13:38:18.362Z,17.02
2019-02-27T13:40:46.480Z,17.07
2019-02-27T13:43:15.889Z,17.29
2019-02-27T13:45:47.598Z,17.47
2019-02-27T13:48:16.518Z,17.54
2019-02-27T13:50:45.964Z,17.54
2019-02-27T13:53:15.390Z,17.50
2019-02-27T13:55:45.300Z,17.50
2019-02-27T13:58:15.977Z,17.63
2019-02-27T14:00:45.495Z,17.70
2019-02-27T14:03:14.977Z,17.69
2019-02-27T14:05:44.553Z,17.65
2019-02-27T14:08:14.150Z,17.69
2019-02-27T14:10:43.553Z,17.76
2019-02-27T14:13:13.139Z,17.76
2019-02-27T14:15:42.594Z,17.76
2019-02-27T14:18:13.460Z,17.64
2019-02-27T14:20:43.456Z,17.66
2019-02-27T14:23:14.530Z,17.73
2019-02-27T14:25:44.166Z,17.76
2019-02-27T14:28:13.668Z,17.72
2019-02-27T14:30:51.362Z,17.70
2019-02-27T14:33:20.858Z,17.70
2019-02-27T14:35:50.368Z,17.69
2019-02-27T14:38:21.946Z,17.72
2019-02-27T14:40:51.010Z,17.68
2019-02-27T14:43:20.519Z,17.66
2019-02-27T14:45:50.830Z,17.55
2019-02-27T14:48:22.291Z,17.57
2019-02-27T14:50:51.819Z,17.57
2019-02-27T14:53:21.300Z,17.57
2019-02-27T14:55:50.814Z,17.56
2019-02-27T14:58:24.012Z,17.53
2019-02-27T15:00:51.476Z,17.59
2019-02-27T15:03:20.988Z,17.55
2019-02-27T15:05:50.507Z,17.55
2019-02-27T15:08:20.095Z,17.51
2019-02-27T15:10:49.621Z,17.38
2019-02-27T15:13:19.129Z,17.45
2019-02-27T15:15:48.601Z,17.29
2019-02-27T15:18:18.044Z,17.20
2019-02-27T15:20:47.494Z,17.18
2019-02-27T15:23:18.547Z,17.20
2019-02-27T15:25:48.005Z,17.15
2019-02-27T15:28:17.509Z,17.13
2019-02-27T15:30:47.371Z,17.17
2019-02-27T15:33:16.890Z,17.11
2019-02-27T15:35:46.365Z,17.12
2019-02-27T15:38:15.863Z,17.05
2019-02-27T15:40:45.527Z,16.99
2019-02-27T15:43:17.450Z,17.03
2019-02-27T15:45:48.099Z,16.95
2019-02-27T15:48:17.649Z,16.88
2019-02-27T15:50:47.169Z,16.87
2019-02-27T15:53:16.765Z,16.80
2019-02-27T15:55:46.265Z,16.70
2019-02-27T15:58:15.798Z,16.61
2019-02-27T16:00:45.289Z,16.53
2019-02-27T16:03:14.813Z,16.46
2019-02-27T16:05:44.275Z,16.37
2019-02-27T16:08:15.405Z,16.31
2019-02-27T16:10:54.347Z,16.23
2019-02-27T16:13:16.067Z,16.08
2019-02-27T16:15:48.450Z,15.90
2019-02-27T16:18:17.552Z,15.86
2019-02-27T16:20:49.809Z,15.81
2019-02-27T16:23:18.133Z,15.67
2019-02-27T16:25:52.836Z,15.53
2019-02-27T16:28:18.796Z,15.43
2019-02-27T16:30:48.358Z,15.26
2019-02-27T16:33:23.577Z,15.13
2019-02-27T16:35:48.937Z,15.00
2019-02-27T16:38:18.379Z,14.83
2019-02-27T16:40:52.091Z,14.68
2019-02-27T16:43:18.954Z,14.51
2019-02-27T16:45:48.393Z,14.31
2019-02-27T16:48:17.912Z,14.07
2019-02-27T16:50:48.248Z,13.89
2019-02-27T16:53:19.456Z,13.68
2019-02-27T16:55:48.932Z,13.53
2019-02-27T16:58:18.352Z,13.35
2019-02-27T17:00:47.958Z,13.22
2019-02-27T17:03:17.386Z,13.08
2019-02-27T17:05:46.853Z,12.98
2019-02-27T17:08:16.422Z,12.84
2019-02-27T17:10:46.011Z,12.72
2019-02-27T17:13:15.627Z,12.59
2019-02-27T17:15:45.128Z,12.47
2019-02-27T17:18:14.636Z,12.33
2019-02-27T17:20:46.407Z,12.19
2019-02-27T17:23:15.581Z,11.98
2019-02-27T17:25:45.109Z,11.81
2019-02-27T17:28:14.549Z,11.66
2019-02-27T17:30:44.014Z,11.55
2019-02-27T17:33:13.462Z,11.47
2019-02-27T17:35:42.929Z,11.40
2019-02-27T17:38:13.700Z,11.37
2019-02-27T17:40:44.596Z,11.26
2019-02-27T17:43:15.197Z,11.17
2019-02-27T17:45:46.942Z,11.08
2019-02-27T17:48:15.803Z,10.97
2019-02-27T17:50:45.223Z,10.87
2019-02-27T17:53:14.681Z,10.82
2019-02-27T17:55:45.896Z,10.74
2019-02-27T17:58:15.308Z,10.63
2019-02-27T18:00:49.979Z,10.54
2019-02-27T18:03:17.635Z,10.48
2019-02-27T18:05:47.269Z,10.36
2019-02-27T18:08:17.191Z,10.27
2019-02-27T18:10:46.786Z,10.22
2019-02-27T18:13:19.240Z,10.16
2019-02-27T18:15:48.759Z,10.05
2019-02-27T18:18:18.263Z,10.02
2019-02-27T18:20:47.722Z,10.01
2019-02-27T18:23:17.176Z,9.93
2019-02-27T18:25:48.403Z,9.85
2019-02-27T18:28:17.813Z,9.78
2019-02-27T18:30:47.258Z,9.75
2019-02-27T18:33:17.511Z,9.69
2019-02-27T18:35:47.040Z,9.64
2019-02-27T18:38:18.507Z,9.55
2019-02-27T18:40:47.637Z,9.52
2019-02-27T18:43:17.102Z,9.42
2019-02-27T18:45:48.248Z,9.38
2019-02-27T18:48:17.769Z,9.28
2019-02-27T18:50:47.224Z,9.22
2019-02-27T18:53:16.797Z,9.15
2019-02-27T18:55:46.336Z,9.11
2019-02-27T18:58:18.196Z,9.11
2019-02-27T19:00:47.066Z,9.01
2019-02-27T19:03:16.640Z,8.94
2019-02-27T19:05:46.251Z,8.90
2019-02-27T19:08:15.836Z,8.87
2019-02-27T19:10:45.361Z,8.80
2019-02-27T19:13:14.817Z,8.74
2019-02-27T19:15:46.332Z,8.68
2019-02-27T19:18:15.710Z,8.63
2019-02-27T19:20:46.806Z,8.56
2019-02-27T19:23:17.823Z,8.53
2019-02-27T19:25:47.979Z,8.51
2019-02-27T19:28:17.473Z,8.53
2019-02-27T19:30:47.064Z,8.51
2019-02-27T19:33:16.565Z,8.42
2019-02-27T19:35:47.714Z,8.44
2019-02-27T19:38:17.226Z,8.40
2019-02-27T19:40:46.727Z,8.41
2019-02-27T19:43:18.194Z,8.41
2019-02-27T19:45:47.511Z,8.47
2019-02-27T19:48:17.109Z,8.49
2019-02-27T19:50:46.672Z,8.50
2019-02-27T19:53:17.230Z,8.47
2019-02-27T19:55:46.675Z,8.45
2019-02-27T19:58:18.161Z,8.43
2019-02-27T20:00:48.766Z,8.45
2019-02-27T20:03:20.133Z,8.43
2019-02-27T20:05:50.562Z,8.43
2019-02-27T20:08:20.773Z,8.46
2019-02-27T20:10:50.827Z,8.50
2019-02-27T20:13:20.251Z,8.47
2019-02-27T20:15:50.160Z,8.51
2019-02-27T20:18:19.684Z,8.54
2019-02-27T20:20:49.599Z,8.55
2019-02-27T20:23:19.025Z,8.60
2019-02-27T20:25:48.613Z,8.54
2019-02-27T20:28:18.479Z,8.52
2019-02-27T20:30:48.058Z,8.50
2019-02-27T20:33:17.687Z,8.47
2019-02-27T20:35:47.361Z,8.44
2019-02-27T20:38:17.063Z,8.48
2019-02-27T20:40:46.487Z,8.50
2019-02-27T20:43:17.065Z,8.51
2019-02-27T20:45:46.861Z,8.54
2019-02-27T20:48:17.875Z,8.61
2019-02-27T20:50:50.090Z,8.58
2019-02-27T20:53:21.041Z,8.58
2019-02-27T20:55:50.781Z,8.53
2019-02-27T20:58:22.068Z,8.49
2019-02-27T21:00:51.436Z,8.48
2019-02-27T21:03:21.011Z,8.43
2019-02-27T21:05:50.524Z,8.39
2019-02-27T21:08:20.116Z,8.34
2019-02-27T21:10:54.719Z,8.25
2019-02-27T21:13:20.856Z,8.21
2019-02-27T21:15:51.384Z,8.14
2019-02-27T21:18:20.886Z,8.05
2019-02-27T21:20:50.959Z,8.03
2019-02-27T21:23:20.555Z,7.95
2019-02-27T21:25:49.999Z,7.94
2019-02-27T21:28:21.139Z,7.89
2019-02-27T21:30:52.291Z,7.84
2019-02-27T21:33:22.290Z,7.84
2019-02-27T21:35:51.752Z,7.85
2019-02-27T21:38:21.181Z,7.85
2019-02-27T21:40:50.620Z,7.87
2019-02-27T21:43:25.247Z,7.93
2019-02-27T21:45:52.077Z,7.91
2019-02-27T21:48:23.502Z,7.89
2019-02-27T21:50:52.702Z,7.89
2019-02-27T21:53:22.137Z,7.83
2019-02-27T21:55:51.584Z,7.71
2019-02-27T21:58:21.220Z,7.62
2019-02-27T22:00:50.740Z,7.53
2019-02-27T22:03:20.226Z,7.50
2019-02-27T22:05:52.522Z,7.49
2019-02-27T22:08:20.795Z,7.46
2019-02-27T22:10:53.669Z,7.39
2019-02-27T22:13:28.763Z,7.37
2019-02-27T22:15:55.907Z,7.34
2019-02-27T22:18:23.744Z,7.34
2019-02-27T22:20:59.489Z,7.29
2019-02-27T22:23:28.366Z,7.25
2019-02-27T22:25:57.923Z,7.21
2019-02-27T22:28:28.799Z,7.20
2019-02-27T22:30:58.403Z,7.20
2019-02-27T22:33:28.798Z,7.14
2019-02-27T22:35:58.237Z,7.14
2019-02-27T22:38:28.800Z,7.09
2019-02-27T22:40:58.257Z,7.11
2019-02-27T22:43:27.740Z,7.02
2019-02-27T22:45:57.180Z,6.99
2019-02-27T22:48:28.718Z,7.01
2019-02-27T22:50:57.831Z,7.04
2019-02-27T22:53:28.761Z,7.01
2019-02-27T22:55:58.399Z,6.95
2019-02-27T22:58:28.363Z,6.91
2019-02-27T23:01:02.352Z,6.92
2019-02-27T23:03:36.585Z,6.91
2019-02-27T23:06:09.247Z,6.94
2019-02-27T23:08:37.799Z,6.94
2019-02-27T23:11:09.289Z,6.90
2019-02-27T23:13:44.127Z,6.87
2019-02-27T23:16:14.381Z,6.84
2019-02-27T23:18:43.975Z,6.80
2019-02-27T23:21:13.537Z,6.79
2019-02-27T23:23:42.977Z,6.74
2019-02-27T23:26:12.488Z,6.70
2019-02-27T23:28:41.916Z,6.69
2019-02-27T23:31:11.422Z,6.72
2019-02-27T23:33:40.841Z,6.60
2019-02-27T23:36:10.373Z,6.60
2019-02-27T23:38:41.476Z,6.58
2019-02-27T23:41:10.948Z,6.60
2019-02-27T23:43:40.459Z,6.62
2019-02-27T23:46:09.917Z,6.64
2019-02-27T23:48:40.330Z,6.62
2019-02-27T23:51:09.776Z,6.65
2019-02-27T23:53:39.295Z,6.73
2019-02-27T23:56:08.784Z,6.75
2019-02-27T23:58:38.231Z,6.75
